createdAt,value
2023-05-31T00:00:54.804Z,74.50
2023-05-31T00:04:36.596Z,74.50
2023-05-31T00:08:18.371Z,74.50
2023-05-31T00:12:00.625Z,74.60
2023-05-31T00:15:42.402Z,74.80
2023-05-31T00:19:24.560Z,74.90
2023-05-31T00:23:06.358Z,75.20
2023-05-31T00:26:48.178Z,76.00
2023-05-31T00:30:29.939Z,75.30
2023-05-31T00:34:13.184Z,75.30
2023-05-31T00:37:55.059Z,76.00
2023-05-31T00:41:36.896Z,75.30
2023-05-31T00:45:18.729Z,75.40
2023-05-31T00:49:01.146Z,75.60
2023-05-31T00:52:46.604Z,75.70
2023-05-31T00:56:28.671Z,75.90
2023-05-31T01:00:11.104Z,75.70
2023-05-31T01:03:57.822Z,75.40
2023-05-31T01:07:39.748Z,75.40
2023-05-31T01:11:52.794Z,75.40
2023-05-31T01:15:45.422Z,76.50
2023-05-31T01:20:12.713Z,75.90
2023-05-31T01:24:15.958Z,76.00
2023-05-31T01:27:59.769Z,75.60
2023-05-31T01:31:43.636Z,75.40
2023-05-31T01:35:25.576Z,75.60
2023-05-31T01:39:08.270Z,75.60
2023-05-31T01:42:51.664Z,75.70
2023-05-31T01:46:33.411Z,75.70
2023-05-31T01:50:16.046Z,75.80
2023-05-31T01:53:59.155Z,75.90
2023-05-31T01:57:43.995Z,76.00
2023-05-31T02:01:26.191Z,76.20
2023-05-31T02:05:09.870Z,76.40
2023-05-31T02:08:51.693Z,76.50
2023-05-31T02:12:33.660Z,76.40
2023-05-31T02:16:15.604Z,76.40
2023-05-31T02:19:57.488Z,76.40
2023-05-31T02:23:39.236Z,76.30
2023-05-31T02:27:21.029Z,76.30
2023-05-31T02:31:03.041Z,76.40
2023-05-31T02:34:46.029Z,76.60
2023-05-31T02:38:28.025Z,76.70
2023-05-31T02:42:09.911Z,76.80
2023-05-31T02:45:52.127Z,76.80
2023-05-31T02:49:33.956Z,76.80
2023-05-31T02:53:16.438Z,77.00
2023-05-31T02:56:58.228Z,76.80
2023-05-31T03:00:39.967Z,76.90
2023-05-31T03:04:21.818Z,76.90
2023-05-31T03:08:04.070Z,76.90
2023-05-31T03:11:46.355Z,77.00
2023-05-31T03:15:28.306Z,77.20
2023-05-31T03:19:10.162Z,77.30
2023-05-31T03:22:52.068Z,77.60
2023-05-31T03:26:33.932Z,77.90
2023-05-31T03:30:15.841Z,78.00
2023-05-31T03:33:57.682Z,78.00
2023-05-31T03:37:39.794Z,78.10
2023-05-31T03:41:21.908Z,77.80
2023-05-31T03:45:04.006Z,77.70
2023-05-31T03:48:45.957Z,77.70
2023-05-31T03:52:27.957Z,77.50
2023-05-31T03:56:09.829Z,77.50
2023-05-31T03:59:51.878Z,77.50
2023-05-31T04:03:33.814Z,77.40
2023-05-31T04:07:15.788Z,77.40
2023-05-31T04:10:57.727Z,77.40
2023-05-31T04:14:39.643Z,77.60
2023-05-31T04:18:21.448Z,77.80
2023-05-31T04:22:03.304Z,77.90
2023-05-31T04:25:45.598Z,77.90
2023-05-31T04:29:27.422Z,78.00
2023-05-31T04:33:09.362Z,78.00
2023-05-31T04:36:52.402Z,78.00
2023-05-31T04:40:34.336Z,78.20
2023-05-31T04:44:16.314Z,78.50
2023-05-31T04:47:58.553Z,78.60
2023-05-31T04:51:40.810Z,78.70
2023-05-31T04:55:22.666Z,78.80
2023-05-31T04:59:04.529Z,78.90
2023-05-31T05:02:47.086Z,78.80
2023-05-31T05:06:29.109Z,78.80
2023-05-31T05:10:11.351Z,78.60
2023-05-31T05:13:54.343Z,78.50
2023-05-31T05:17:36.801Z,78.30
2023-05-31T05:21:18.748Z,78.10
2023-05-31T05:25:01.364Z,78.00
2023-05-31T05:28:43.158Z,77.80
2023-05-31T05:32:25.120Z,77.70
2023-05-31T05:36:07.274Z,77.60
2023-05-31T05:39:49.087Z,77.70
2023-05-31T05:43:31.718Z,77.80
2023-05-31T05:47:14.579Z,77.70
2023-05-31T05:50:56.937Z,77.70
2023-05-31T05:54:39.526Z,77.50
2023-05-31T05:58:22.229Z,77.50
2023-05-31T06:02:04.517Z,77.70
2023-05-31T06:05:46.364Z,77.80
2023-05-31T06:09:28.254Z,77.70
2023-05-31T06:13:10.112Z,77.70
2023-05-31T06:16:52.026Z,77.70
2023-05-31T06:20:34.036Z,77.70
2023-05-31T06:24:16.027Z,77.80
2023-05-31T06:27:58.690Z,77.80
2023-05-31T06:31:41.056Z,77.70
2023-05-31T06:35:24.000Z,77.70
2023-05-31T06:39:05.855Z,77.70
2023-05-31T06:42:47.692Z,78.20
2023-05-31T06:46:29.948Z,78.10
2023-05-31T06:50:13.544Z,78.00
2023-05-31T06:53:55.361Z,77.20
2023-05-31T06:57:37.194Z,76.60
2023-05-31T07:01:19.028Z,76.80
2023-05-31T07:05:01.170Z,76.20
2023-05-31T07:08:42.994Z,76.00
2023-05-31T07:12:24.860Z,76.00
2023-05-31T07:16:06.953Z,76.20
2023-05-31T07:19:49.899Z,75.30
2023-05-31T07:23:31.714Z,75.20
2023-05-31T07:27:13.714Z,75.30
2023-05-31T07:30:55.599Z,75.40
2023-05-31T07:34:37.413Z,75.30
2023-05-31T07:38:19.258Z,75.30
2023-05-31T07:42:01.734Z,75.40
2023-05-31T07:45:43.875Z,75.50
2023-05-31T07:49:25.922Z,75.50
2023-05-31T07:53:07.778Z,75.50
2023-05-31T07:56:49.653Z,75.60
2023-05-31T08:00:32.976Z,75.60
2023-05-31T08:04:16.946Z,75.40
2023-05-31T08:08:00.281Z,75.30
2023-05-31T08:11:42.319Z,75.40
2023-05-31T08:15:24.135Z,75.50
2023-05-31T08:19:06.148Z,75.50
2023-05-31T08:22:47.977Z,75.50
2023-05-31T08:26:29.785Z,75.50
2023-05-31T08:30:13.019Z,75.40
2023-05-31T08:33:59.305Z,75.40
2023-05-31T08:37:41.269Z,75.70
2023-05-31T08:41:24.299Z,75.60
2023-05-31T08:45:06.649Z,75.40
2023-05-31T08:48:57.517Z,75.30
2023-05-31T08:52:40.884Z,75.40
2023-05-31T08:56:24.514Z,76.20
2023-05-31T09:00:12.201Z,75.90
2023-05-31T09:03:55.203Z,75.10
2023-05-31T09:07:37.295Z,74.90
2023-05-31T09:11:19.189Z,74.70
2023-05-31T09:15:01.350Z,75.30
2023-05-31T09:18:43.406Z,74.60
2023-05-31T09:22:25.220Z,74.50
2023-05-31T09:26:08.279Z,74.40
2023-05-31T09:29:57.317Z,74.10
2023-05-31T09:33:43.610Z,74.40
2023-05-31T09:37:26.232Z,73.90
2023-05-31T09:41:22.370Z,73.60
2023-05-31T09:45:05.572Z,74.10
2023-05-31T09:49:01.791Z,73.70
2023-05-31T09:52:48.493Z,73.20
2023-05-31T09:56:30.379Z,73.30
2023-05-31T10:00:17.632Z,73.40
2023-05-31T10:04:06.935Z,73.50
2023-05-31T10:07:54.070Z,73.70
2023-05-31T10:11:37.760Z,73.60
2023-05-31T10:15:28.236Z,73.30
2023-05-31T10:19:14.148Z,72.60
2023-05-31T10:22:59.344Z,72.70
2023-05-31T10:27:11.615Z,72.50
2023-05-31T10:30:53.650Z,71.70
2023-05-31T10:34:35.829Z,72.40
2023-05-31T10:38:21.847Z,72.30
2023-05-31T10:42:15.286Z,72.10
2023-05-31T10:46:03.819Z,71.80
2023-05-31T10:49:47.639Z,71.40
2023-05-31T10:53:31.560Z,71.30
2023-05-31T10:57:13.573Z,71.40
2023-05-31T11:00:57.255Z,71.50
2023-05-31T11:04:39.592Z,71.30
2023-05-31T11:08:21.611Z,71.30
2023-05-31T11:12:05.210Z,71.20
2023-05-31T11:15:48.239Z,70.80
2023-05-31T11:19:32.054Z,70.80
2023-05-31T11:23:30.460Z,70.20
2023-05-31T11:27:13.476Z,68.90
2023-05-31T11:30:55.431Z,69.40
2023-05-31T11:35:05.334Z,69.50
2023-05-31T11:38:47.178Z,69.20
2023-05-31T11:42:33.174Z,69.50
2023-05-31T11:46:15.184Z,69.00
2023-05-31T11:49:58.415Z,69.20
2023-05-31T11:53:40.215Z,69.40
2023-05-31T11:57:23.436Z,69.80
2023-05-31T12:01:05.411Z,69.90
2023-05-31T12:04:47.240Z,69.90
2023-05-31T12:08:29.664Z,69.80
2023-05-31T12:12:13.110Z,69.70
2023-05-31T12:15:57.179Z,69.70
2023-05-31T12:19:39.229Z,69.80
2023-05-31T12:23:21.251Z,69.30
2023-05-31T12:27:03.514Z,69.50
2023-05-31T12:30:50.389Z,69.60
2023-05-31T12:34:35.295Z,69.40
2023-05-31T12:38:17.730Z,70.10
2023-05-31T12:41:59.785Z,69.30
2023-05-31T12:45:42.700Z,69.20
2023-05-31T12:49:28.873Z,69.20
2023-05-31T12:53:10.937Z,69.10
2023-05-31T12:56:52.852Z,69.10
2023-05-31T13:00:34.945Z,69.00
2023-05-31T13:04:16.896Z,68.90
2023-05-31T13:07:58.806Z,68.90
2023-05-31T13:11:41.310Z,68.60
2023-05-31T13:15:23.310Z,68.70
2023-05-31T13:19:07.165Z,68.60
2023-05-31T13:22:49.001Z,68.40
2023-05-31T13:26:30.816Z,68.30
2023-05-31T13:30:13.274Z,68.20
2023-05-31T13:33:56.431Z,68.20
2023-05-31T13:37:38.251Z,68.10
2023-05-31T13:41:23.811Z,67.90
2023-05-31T13:45:06.158Z,67.80
2023-05-31T13:48:48.011Z,67.60
2023-05-31T13:52:30.704Z,67.50
2023-05-31T13:56:12.504Z,67.80
2023-05-31T13:59:54.448Z,67.80
2023-05-31T14:03:37.860Z,68.40
2023-05-31T14:07:20.508Z,67.70
2023-05-31T14:11:03.016Z,67.70
2023-05-31T14:14:45.578Z,67.80
2023-05-31T14:18:27.844Z,67.80
2023-05-31T14:22:09.802Z,67.90
2023-05-31T14:25:51.760Z,68.00
2023-05-31T14:29:33.973Z,68.10
2023-05-31T14:33:16.010Z,68.10
2023-05-31T14:36:58.641Z,68.10
2023-05-31T14:40:40.895Z,68.10
2023-05-31T14:44:22.756Z,68.10
2023-05-31T14:48:04.735Z,68.10
2023-05-31T14:51:46.534Z,68.20
2023-05-31T14:55:28.369Z,68.80
2023-05-31T14:59:10.193Z,68.40
2023-05-31T15:02:52.179Z,68.80
2023-05-31T15:06:34.013Z,68.70
2023-05-31T15:10:15.880Z,68.80
2023-05-31T15:13:57.941Z,68.60
2023-05-31T15:17:41.214Z,69.10
2023-05-31T15:21:23.184Z,68.90
2023-05-31T15:25:05.532Z,68.60
2023-05-31T15:28:47.381Z,68.60
2023-05-31T15:32:29.201Z,68.70
2023-05-31T15:36:11.018Z,68.70
2023-05-31T15:39:52.869Z,68.90
2023-05-31T15:43:35.668Z,68.90
2023-05-31T15:47:17.448Z,68.90
2023-05-31T15:50:59.490Z,69.00
2023-05-31T15:54:41.488Z,68.90
2023-05-31T15:58:23.424Z,69.10
2023-05-31T16:02:05.608Z,69.10
2023-05-31T16:05:47.495Z,69.20
2023-05-31T16:09:29.284Z,69.30
2023-05-31T16:13:11.227Z,69.40
2023-05-31T16:16:53.047Z,69.20
2023-05-31T16:20:35.410Z,69.20
2023-05-31T16:24:17.268Z,69.30
2023-05-31T16:27:59.114Z,69.30
2023-05-31T16:31:40.990Z,69.30
2023-05-31T16:35:22.934Z,69.10
2023-05-31T16:39:09.972Z,69.30
2023-05-31T16:42:52.253Z,69.20
2023-05-31T16:46:35.112Z,68.90
2023-05-31T16:50:17.168Z,69.00
2023-05-31T16:53:59.333Z,69.00
2023-05-31T16:57:41.142Z,69.00
2023-05-31T17:01:24.001Z,69.10
2023-05-31T17:05:07.064Z,69.10
2023-05-31T17:08:49.133Z,69.10
2023-05-31T17:12:30.967Z,69.20
2023-05-31T17:16:14.878Z,69.20
2023-05-31T17:19:57.832Z,69.20
2023-05-31T17:23:39.699Z,69.20
2023-05-31T17:27:21.558Z,69.30
2023-05-31T17:31:03.444Z,69.30
2023-05-31T17:34:45.466Z,69.40
2023-05-31T17:38:27.261Z,69.50
2023-05-31T17:42:09.558Z,69.60
2023-05-31T17:45:52.265Z,69.70
2023-05-31T17:49:34.095Z,69.80
2023-05-31T17:53:16.512Z,69.80
2023-05-31T17:56:58.390Z,69.90
2023-05-31T18:00:40.246Z,69.80
2023-05-31T18:04:22.101Z,69.80
2023-05-31T18:08:03.942Z,70.00
2023-05-31T18:11:45.748Z,70.10
2023-05-31T18:15:27.687Z,70.30
2023-05-31T18:19:09.519Z,70.20
2023-05-31T18:22:51.338Z,70.30
2023-05-31T18:26:33.140Z,70.40
2023-05-31T18:30:15.227Z,70.40
2023-05-31T18:33:57.621Z,70.50
2023-05-31T18:37:39.429Z,70.60
2023-05-31T18:41:21.279Z,70.50
2023-05-31T18:45:03.240Z,70.70
2023-05-31T18:48:45.067Z,70.70
2023-05-31T18:52:27.202Z,70.80
2023-05-31T18:56:09.388Z,70.80
2023-05-31T18:59:51.240Z,70.80
2023-05-31T19:03:33.203Z,71.00
2023-05-31T19:07:15.216Z,70.90
2023-05-31T19:10:57.724Z,71.10
2023-05-31T19:14:39.741Z,71.30
2023-05-31T19:18:21.576Z,71.30
2023-05-31T19:22:03.820Z,71.60
2023-05-31T19:25:46.326Z,71.80
2023-05-31T19:29:28.111Z,72.00
2023-05-31T19:33:10.070Z,72.00
2023-05-31T19:36:52.105Z,71.80
2023-05-31T19:40:34.030Z,71.80
2023-05-31T19:44:16.025Z,71.90
2023-05-31T19:47:57.973Z,71.90
2023-05-31T19:51:39.841Z,72.00
2023-05-31T19:55:21.870Z,72.10
2023-05-31T19:59:04.284Z,72.20
2023-05-31T20:02:46.481Z,72.30
2023-05-31T20:06:28.352Z,72.40
2023-05-31T20:10:10.597Z,72.40
2023-05-31T20:13:52.738Z,72.70
2023-05-31T20:17:34.552Z,72.80
2023-05-31T20:21:16.706Z,73.00
2023-05-31T20:24:58.707Z,73.00
2023-05-31T20:28:40.546Z,73.10
2023-05-31T20:32:22.533Z,73.20
2023-05-31T20:36:04.796Z,73.20
2023-05-31T20:39:46.574Z,73.20
2023-05-31T20:43:28.406Z,73.40
2023-05-31T20:47:10.693Z,73.50
2023-05-31T20:50:52.601Z,73.60
2023-05-31T20:54:34.452Z,73.70
2023-05-31T20:58:16.555Z,73.70
2023-05-31T21:01:58.989Z,73.60
2023-05-31T21:05:40.939Z,74.50
2023-05-31T21:09:22.787Z,74.60
2023-05-31T21:13:04.612Z,73.90
2023-05-31T21:16:46.426Z,73.90
2023-05-31T21:20:28.344Z,73.90
2023-05-31T21:24:10.541Z,74.10
2023-05-31T21:27:53.873Z,74.20
2023-05-31T21:31:39.393Z,74.30
2023-05-31T21:35:24.210Z,74.20
2023-05-31T21:39:06.018Z,74.50
2023-05-31T21:42:48.078Z,74.30
2023-05-31T21:46:29.913Z,74.60
2023-05-31T21:50:11.889Z,74.70
2023-05-31T21:53:53.829Z,75.00
2023-05-31T21:57:35.621Z,75.70
2023-05-31T22:01:17.462Z,75.00
2023-05-31T22:04:59.313Z,75.20
2023-05-31T22:08:41.146Z,75.30
2023-05-31T22:12:22.957Z,75.30
2023-05-31T22:16:05.106Z,75.40
2023-05-31T22:19:46.939Z,75.40
2023-05-31T22:23:28.803Z,75.40
2023-05-31T22:27:10.679Z,75.50
2023-05-31T22:30:53.836Z,75.50
2023-05-31T22:34:35.774Z,75.60
2023-05-31T22:38:17.802Z,75.50
2023-05-31T22:41:59.894Z,75.60
2023-05-31T22:45:41.731Z,75.50
2023-05-31T22:49:23.665Z,75.60
2023-05-31T22:53:08.239Z,75.70
2023-05-31T22:56:50.087Z,76.00
2023-05-31T23:00:31.861Z,76.00
2023-05-31T23:04:17.301Z,76.30
2023-05-31T23:08:03.388Z,76.30
2023-05-31T23:11:45.675Z,76.20
2023-05-31T23:15:31.528Z,76.20
2023-05-31T23:19:14.824Z,76.30
2023-05-31T23:22:58.342Z,76.20
2023-05-31T23:26:40.300Z,76.30
2023-05-31T23:30:22.304Z,76.40
2023-05-31T23:34:04.115Z,76.40
2023-05-31T23:37:46.010Z,76.60
2023-05-31T23:41:28.720Z,76.70
2023-05-31T23:45:12.237Z,76.70
2023-05-31T23:48:54.174Z,76.90
2023-05-31T23:52:36.629Z,77.00
2023-05-31T23:56:18.495Z,77.80
